PWSweather.com
Personal Weather Stations
Station Observations
SUBOTICARS
SuboticaYU

SuboticaYU

Lat: 46.1296717, Lon: 19.641551

Elevation: 361

Station Type: Nexus

http://sumeteo.info

Latest ConditionsUpdated 5:10:01 AM GMT+01:01 Wednesday, Aug 21, 2019
Currently Today's Max Today's Min Today's Average
Temperature 60.4°F15.8°C 64.2°F17.9°C 60.3°F15.7°C 62.6°F17.0°C
Dew Point 54.6°F12.6°C 56.1°F13.4°C 54.4°F12.4°C 55.3°F12.9°C
Winds Calm Calm 3.5 mph -5.6 kmh - - 0.1 mph 0.2 kmh
Wind Gusts -- 3.5 mph5.6 kmh - -
Humidity 81% 81% 74% 77%
Pressure 29.74 in1007.1 mb 29.74 in1007.1 mb 29.72 in1006.4 mb -
Hour Temp Dew Point Humidity Winds Wind Gusts Pressure Precip Precip Rate Daily Precip Total
05:10 AM 60.4°F15.8°C 54.6°F12.6°C 81% Calm Calm -- 29.74 in1007.1 mb - 0.00 in0.0 mm 0.00 in0.0 mm
05:00 AM 60.4°F15.8°C 54.6°F12.6°C 81% Calm Calm -- 29.74 in1007.1 mb - 0.00 in0.0 mm 0.00 in0.0 mm
04:55 AM 60.3°F15.7°C 54.4°F12.4°C 81% Calm Calm -- 29.74 in1007.1 mb - 0.00 in0.0 mm 0.00 in0.0 mm
04:50 AM 60.3°F15.7°C 54.4°F12.4°C 81% Calm Calm -- 29.74 in1007.1 mb - 0.00 in0.0 mm 0.00 in0.0 mm
04:45 AM 60.3°F15.7°C 54.4°F12.4°C 81% Calm Calm -- 29.74 in1007.1 mb - 0.00 in0.0 mm 0.00 in0.0 mm
04:40 AM 60.4°F15.8°C 54.6°F12.6°C 81% Calm Calm -- 29.73 in1006.8 mb - 0.00 in0.0 mm 0.00 in0.0 mm
04:35 AM 60.4°F15.8°C 54.6°F12.6°C 81% Calm Calm -- 29.73 in1006.8 mb - 0.00 in0.0 mm 0.00 in0.0 mm
04:30 AM 60.6°F15.9°C 54.8°F12.7°C 81% Calm Calm -- 29.73 in1006.8 mb - 0.00 in0.0 mm 0.00 in0.0 mm
04:25 AM 60.8°F16.0°C 54.9°F12.7°C 81% Calm Calm -- 29.72 in1006.4 mb - 0.00 in0.0 mm 0.00 in0.0 mm
04:20 AM 60.8°F16.0°C 54.6°F12.6°C 80% Calm Calm -- 29.72 in1006.4 mb - 0.00 in0.0 mm 0.00 in0.0 mm
04:15 AM 61.0°F16.1°C 54.8°F12.7°C 80% Calm Calm -- 29.72 in1006.4 mb - 0.00 in0.0 mm 0.00 in0.0 mm
04:10 AM 61.0°F16.1°C 54.8°F12.7°C 80% Calm Calm -- 29.72 in1006.4 mb - 0.00 in0.0 mm 0.00 in0.0 mm
04:00 AM 61.2°F16.2°C 54.9°F12.7°C 80% Calm Calm -- 29.72 in1006.4 mb - 0.00 in0.0 mm 0.00 in0.0 mm
03:55 AM 61.3°F16.3°C 55.1°F12.8°C 80% Calm Calm -- 29.73 in1006.8 mb - 0.00 in0.0 mm 0.00 in0.0 mm
03:50 AM 61.5°F16.4°C 55.3°F12.9°C 80% Calm Calm -- 29.73 in1006.8 mb - 0.00 in0.0 mm 0.00 in0.0 mm
03:45 AM 61.7°F16.5°C 55.1°F12.8°C 79% Calm Calm -- 29.73 in1006.8 mb - 0.00 in0.0 mm 0.00 in0.0 mm
03:40 AM 61.7°F16.5°C 55.1°F12.8°C 79% Calm Calm -- 29.73 in1006.8 mb - 0.00 in0.0 mm 0.00 in0.0 mm
03:35 AM 61.9°F16.6°C 55.3°F12.9°C 79% Calm Calm -- 29.73 in1006.8 mb - 0.00 in0.0 mm 0.00 in0.0 mm
03:30 AM 62.1°F16.7°C 55.5°F13.1°C 79% Calm Calm -- 29.73 in1006.8 mb - 0.00 in0.0 mm 0.00 in0.0 mm
03:25 AM 62.2°F16.8°C 55.6°F13.1°C 79% Calm Calm -- 29.72 in1006.4 mb - 0.00 in0.0 mm 0.00 in0.0 mm
03:20 AM 62.2°F16.8°C 55.6°F13.1°C 79% Calm Calm -- 29.72 in1006.4 mb - 0.00 in0.0 mm 0.00 in0.0 mm
03:15 AM 62.4°F16.9°C 55.8°F13.2°C 79% Calm Calm -- 29.72 in1006.4 mb - 0.00 in0.0 mm 0.00 in0.0 mm
03:10 AM 62.6°F17.0°C 54.9°F12.7°C 76% Calm Calm -- 29.73 in1006.8 mb - 0.00 in0.0 mm 0.00 in0.0 mm
03:00 AM 62.8°F17.1°C 55.1°F12.8°C 76% Calm Calm -- 29.73 in1006.8 mb - 0.00 in0.0 mm 0.00 in0.0 mm
02:55 AM 63.0°F17.2°C 55.3°F12.9°C 76% Calm Calm -- 29.73 in1006.8 mb - 0.00 in0.0 mm 0.00 in0.0 mm
02:50 AM 63.1°F17.3°C 55.1°F12.8°C 75% Calm Calm -- 29.73 in1006.8 mb - 0.00 in0.0 mm 0.00 in0.0 mm
02:45 AM 63.1°F17.3°C 55.1°F12.8°C 75% Calm Calm -- 29.73 in1006.8 mb - 0.00 in0.0 mm 0.00 in0.0 mm
02:40 AM 63.3°F17.4°C 55.3°F12.9°C 75% Calm Calm -- 29.73 in1006.8 mb - 0.00 in0.0 mm 0.00 in0.0 mm
02:35 AM 63.5°F17.5°C 55.4°F13.0°C 75% Calm Calm -- 29.73 in1006.8 mb - 0.00 in0.0 mm 0.00 in0.0 mm
02:30 AM 63.5°F17.5°C 55.4°F13.0°C 75% Calm Calm -- 29.73 in1006.8 mb - 0.00 in0.0 mm 0.00 in0.0 mm
02:25 AM 63.7°F17.6°C 55.6°F13.1°C 75% Calm Calm -- 29.73 in1006.8 mb - 0.00 in0.0 mm 0.00 in0.0 mm
02:20 AM 63.9°F17.7°C 55.8°F13.2°C 75% Calm Calm -- 29.73 in1006.8 mb - 0.00 in0.0 mm 0.00 in0.0 mm
02:15 AM 63.9°F17.7°C 55.8°F13.2°C 75% Calm Calm -- 29.73 in1006.8 mb - 0.00 in0.0 mm 0.00 in0.0 mm
02:10 AM 63.9°F17.7°C 55.8°F13.2°C 75% Calm Calm -- 29.72 in1006.4 mb - 0.00 in0.0 mm 0.00 in0.0 mm
02:00 AM 64.0°F17.8°C 56.0°F13.3°C 75% Calm Calm -- 29.72 in1006.4 mb - 0.00 in0.0 mm 0.00 in0.0 mm
01:55 AM 64.0°F17.8°C 56.0°F13.3°C 75% Calm Calm -- 29.72 in1006.4 mb - 0.00 in0.0 mm 0.00 in0.0 mm
01:50 AM 64.0°F17.8°C 56.0°F13.3°C 75% Calm Calm -- 29.72 in1006.4 mb - 0.00 in0.0 mm 0.00 in0.0 mm
01:45 AM 64.0°F17.8°C 56.0°F13.3°C 75% Calm Calm -- 29.72 in1006.4 mb - 0.00 in0.0 mm 0.00 in0.0 mm
01:40 AM 64.2°F17.9°C 56.1°F13.4°C 75% Calm Calm -- 29.73 in1006.8 mb - 0.00 in0.0 mm 0.00 in0.0 mm
01:35 AM 64.0°F17.8°C 56.0°F13.3°C 75% Calm Calm -- 29.73 in1006.8 mb - 0.00 in0.0 mm 0.00 in0.0 mm
01:30 AM 64.0°F17.8°C 56.0°F13.3°C 75% Calm Calm -- 29.73 in1006.8 mb - 0.00 in0.0 mm 0.00 in0.0 mm
01:25 AM 64.0°F17.8°C 55.9°F13.3°C 75% Calm Calm -- 29.72 in1006.4 mb - 0.00 in0.0 mm 0.00 in0.0 mm
01:20 AM 63.7°F17.6°C 55.6°F13.1°C 75% 1.2 mph SE1.9 kmh SE 2.3 mph3.7 kmh 29.72 in1006.4 mb - 0.00 in0.0 mm 0.00 in0.0 mm
01:15 AM 63.7°F17.6°C 55.6°F13.1°C 75% Calm Calm -- 29.72 in1006.4 mb - 0.00 in0.0 mm 0.00 in0.0 mm
01:10 AM 63.5°F17.5°C 55.4°F13.0°C 75% Calm Calm -- 29.73 in1006.8 mb - 0.00 in0.0 mm 0.00 in0.0 mm
01:00 AM 63.3°F17.4°C 55.3°F12.9°C 75% Calm Calm -- 29.73 in1006.8 mb - 0.00 in0.0 mm 0.00 in0.0 mm
12:55 AM 63.3°F17.4°C 55.3°F12.9°C 75% Calm Calm -- 29.73 in1006.8 mb - 0.00 in0.0 mm 0.00 in0.0 mm
12:50 AM 63.3°F17.4°C 55.3°F12.9°C 75% Calm Calm -- 29.73 in1006.8 mb - 0.00 in0.0 mm 0.00 in0.0 mm
12:45 AM 63.5°F17.5°C 55.4°F13.0°C 75% Calm Calm -- 29.73 in1006.8 mb - 0.00 in0.0 mm 0.00 in0.0 mm
12:40 AM 63.7°F17.6°C 55.6°F13.1°C 75% Calm Calm -- 29.73 in1006.8 mb - 0.00 in0.0 mm 0.00 in0.0 mm
12:35 AM 63.7°F17.6°C 55.6°F13.1°C 75% Calm Calm -- 29.73 in1006.8 mb - 0.00 in0.0 mm 0.00 in0.0 mm
12:30 AM 63.5°F17.5°C 55.4°F13.0°C 75% Calm Calm -- 29.73 in1006.8 mb - 0.00 in0.0 mm 0.00 in0.0 mm
12:25 AM 63.7°F17.6°C 55.2°F12.9°C 74% Calm Calm -- 29.72 in1006.4 mb - 0.00 in0.0 mm 0.00 in0.0 mm
12:20 AM 63.5°F17.5°C 55.1°F12.8°C 74% 2.3 mph SE3.7 kmh SE 3.5 mph5.6 kmh 29.72 in1006.4 mb - 0.00 in0.0 mm 0.00 in0.0 mm
12:15 AM 63.5°F17.5°C 55.1°F12.8°C 74% 3.5 mph SE5.6 kmh SE 3.5 mph5.6 kmh 29.72 in1006.4 mb - 0.00 in0.0 mm 0.00 in0.0 mm
12:10 AM 63.7°F17.6°C 55.2°F12.9°C 74% Calm Calm -- 29.72 in1006.4 mb - 0.00 in0.0 mm 0.00 in0.0 mm
12:00 AM 64.0°F17.8°C 55.5°F13.1°C 74% Calm Calm -- 29.72 in1006.4 mb - 0.00 in0.0 mm 0.00 in0.0 mm